createdAt,value
2024-01-18T00:00:12.816Z,5.44
2024-01-18T00:02:40.436Z,5.46
2024-01-18T00:05:08.166Z,5.46
2024-01-18T00:07:34.869Z,5.39
2024-01-18T00:10:01.809Z,5.37
2024-01-18T00:12:28.526Z,5.38
2024-01-18T00:14:55.190Z,5.34
2024-01-18T00:17:21.711Z,5.30
2024-01-18T00:19:48.470Z,5.33
2024-01-18T00:22:15.087Z,5.35
2024-01-18T00:24:41.641Z,5.36
2024-01-18T00:27:08.286Z,5.36
2024-01-18T00:29:34.872Z,5.40
2024-01-18T00:32:01.525Z,5.43
2024-01-18T00:34:28.345Z,5.40
2024-01-18T00:36:54.958Z,5.34
2024-01-18T00:39:22.494Z,5.31
2024-01-18T00:41:49.495Z,5.28
2024-01-18T00:44:16.054Z,5.26
2024-01-18T00:46:42.681Z,5.28
2024-01-18T00:49:09.410Z,5.23
2024-01-18T00:51:36.056Z,5.21
2024-01-18T00:54:03.648Z,5.16
2024-01-18T00:56:30.772Z,5.12
2024-01-18T00:58:57.449Z,4.98
2024-01-18T01:01:24.170Z,4.86
2024-01-18T01:03:50.753Z,4.81
2024-01-18T01:06:17.366Z,4.79
2024-01-18T01:08:44.226Z,4.80
2024-01-18T01:11:10.880Z,4.78
2024-01-18T01:13:37.571Z,4.79
2024-01-18T01:16:04.575Z,4.80
2024-01-18T01:18:31.461Z,4.84
2024-01-18T01:20:58.162Z,4.82
2024-01-18T01:23:24.786Z,4.78
2024-01-18T01:25:51.400Z,4.75
2024-01-18T01:28:17.956Z,4.73
2024-01-18T01:30:44.696Z,4.77
2024-01-18T01:33:11.631Z,4.81
2024-01-18T01:35:38.245Z,4.77
2024-01-18T01:38:05.271Z,4.78
2024-01-18T01:40:31.971Z,4.72
2024-01-18T01:42:58.631Z,4.67
2024-01-18T01:45:25.474Z,4.66
2024-01-18T01:47:52.330Z,4.68
2024-01-18T01:50:19.177Z,4.66
2024-01-18T01:52:47.228Z,4.68
2024-01-18T01:55:15.167Z,4.67
2024-01-18T01:57:45.634Z,4.60
2024-01-18T02:00:14.406Z,4.53
2024-01-18T02:02:42.428Z,4.53
2024-01-18T02:05:10.229Z,4.52
2024-01-18T02:07:40.078Z,4.46
2024-01-18T02:10:08.734Z,4.41
2024-01-18T02:12:35.816Z,4.33
2024-01-18T02:15:03.340Z,4.36
2024-01-18T02:17:30.212Z,4.35
2024-01-18T02:19:57.305Z,4.24
2024-01-18T02:22:27.324Z,4.18
2024-01-18T02:24:57.807Z,4.17
2024-01-18T02:27:24.701Z,4.14
2024-01-18T02:29:52.687Z,4.12
2024-01-18T02:32:19.294Z,4.05
2024-01-18T02:34:46.124Z,4.10
2024-01-18T02:37:12.911Z,4.12
2024-01-18T02:39:39.803Z,4.05
2024-01-18T02:42:07.247Z,3.94
2024-01-18T02:44:34.101Z,3.93
2024-01-18T02:47:00.673Z,3.94
2024-01-18T02:49:27.304Z,3.95
2024-01-18T02:51:53.960Z,4.01
2024-01-18T02:54:20.542Z,4.00
2024-01-18T02:56:47.096Z,3.94
2024-01-18T02:59:13.609Z,3.88
2024-01-18T03:01:40.097Z,3.85
2024-01-18T03:04:06.821Z,3.87
2024-01-18T03:06:33.437Z,3.84
2024-01-18T03:09:00.021Z,3.76
2024-01-18T03:11:26.712Z,3.76
2024-01-18T03:13:53.638Z,3.77
2024-01-18T03:16:20.349Z,3.69
2024-01-18T03:18:47.888Z,3.71
2024-01-18T03:21:15.011Z,3.64
2024-01-18T03:23:41.765Z,3.68
2024-01-18T03:26:09.486Z,3.71
2024-01-18T03:28:36.059Z,3.72
2024-01-18T03:31:02.626Z,3.68
2024-01-18T03:33:29.260Z,3.73
2024-01-18T03:35:56.385Z,3.81
2024-01-18T03:38:22.961Z,3.75
2024-01-18T03:40:49.536Z,3.71
2024-01-18T03:43:16.200Z,3.73
2024-01-18T03:45:43.033Z,3.77
2024-01-18T03:48:09.767Z,3.80
2024-01-18T03:50:36.419Z,3.70
2024-01-18T03:53:02.934Z,3.69
2024-01-18T03:55:29.430Z,3.64
2024-01-18T03:57:56.054Z,3.56
2024-01-18T04:00:22.712Z,3.59
2024-01-18T04:02:49.236Z,3.54
2024-01-18T04:05:15.820Z,3.52
2024-01-18T04:07:42.394Z,3.52
2024-01-18T04:10:09.352Z,3.53
2024-01-18T04:12:36.343Z,3.56
2024-01-18T04:15:03.236Z,3.57
2024-01-18T04:17:29.806Z,3.61
2024-01-18T04:19:56.376Z,3.64
2024-01-18T04:22:26.057Z,3.69
2024-01-18T04:24:52.905Z,3.61
2024-01-18T04:27:19.449Z,3.60
2024-01-18T04:29:46.039Z,3.57
2024-01-18T04:32:12.549Z,3.57
2024-01-18T04:34:39.082Z,3.54
2024-01-18T04:37:05.854Z,3.48
2024-01-18T04:39:32.426Z,3.43
2024-01-18T04:41:59.070Z,3.36
2024-01-18T04:44:25.634Z,3.36
2024-01-18T04:46:52.516Z,3.35
2024-01-18T04:49:19.068Z,3.36
2024-01-18T04:51:45.675Z,3.28
2024-01-18T04:54:12.289Z,3.23
2024-01-18T04:56:39.158Z,3.20
2024-01-18T04:59:06.409Z,3.26
2024-01-18T05:01:38.559Z,3.24
2024-01-18T05:04:05.386Z,3.27
2024-01-18T05:06:33.094Z,3.29
2024-01-18T05:08:59.735Z,3.31
2024-01-18T05:11:26.710Z,3.27
2024-01-18T05:13:54.187Z,3.20
2024-01-18T05:16:21.019Z,3.19
2024-01-18T05:18:47.560Z,3.17
2024-01-18T05:21:14.192Z,3.17
2024-01-18T05:23:40.777Z,3.07
2024-01-18T05:26:10.050Z,2.95
2024-01-18T05:28:36.638Z,2.92
2024-01-18T05:31:03.248Z,2.92
2024-01-18T05:33:29.874Z,2.92
2024-01-18T05:35:56.416Z,2.89
2024-01-18T05:38:22.940Z,2.87
2024-01-18T05:40:49.426Z,2.84
2024-01-18T05:43:16.021Z,2.87
2024-01-18T05:45:42.624Z,2.78
2024-01-18T05:48:09.289Z,2.67
2024-01-18T05:50:35.894Z,2.67
2024-01-18T05:53:02.408Z,2.71
2024-01-18T05:55:28.981Z,2.74
2024-01-18T05:57:55.622Z,2.88
2024-01-18T06:00:22.309Z,3.41
2024-01-18T06:02:48.822Z,4.47
2024-01-18T06:05:15.532Z,4.67
2024-01-18T06:07:42.051Z,5.68
2024-01-18T06:10:09.075Z,6.29
2024-01-18T06:12:35.611Z,5.55
2024-01-18T06:15:02.934Z,4.89
2024-01-18T06:17:29.574Z,4.36
2024-01-18T06:19:56.872Z,4.20
2024-01-18T06:22:23.449Z,4.51
2024-01-18T06:24:50.025Z,4.34
2024-01-18T06:27:16.607Z,4.07
2024-01-18T06:29:43.154Z,3.66
2024-01-18T06:32:09.734Z,3.25
2024-01-18T06:34:36.385Z,2.92
2024-01-18T06:37:02.964Z,2.74
2024-01-18T06:39:29.650Z,2.64
2024-01-18T06:41:56.187Z,2.49
2024-01-18T06:44:22.752Z,2.39
2024-01-18T06:46:49.780Z,2.38
2024-01-18T06:49:16.449Z,2.29
2024-01-18T06:51:43.499Z,2.21
2024-01-18T06:54:11.014Z,2.19
2024-01-18T06:56:38.689Z,2.08
2024-01-18T06:59:06.631Z,2.00
2024-01-18T07:01:34.537Z,1.94
2024-01-18T07:04:01.217Z,1.88
2024-01-18T07:06:27.804Z,1.89
2024-01-18T07:08:55.094Z,1.93
2024-01-18T07:11:21.556Z,1.97
2024-01-18T07:13:48.103Z,1.97
2024-01-18T07:16:14.963Z,1.85
2024-01-18T07:18:41.501Z,1.82
2024-01-18T07:21:08.166Z,1.84
2024-01-18T07:23:34.698Z,1.80
2024-01-18T07:26:01.272Z,1.84
2024-01-18T07:28:28.235Z,1.84
2024-01-18T07:30:54.837Z,1.91
2024-01-18T07:33:22.284Z,1.90
2024-01-18T07:35:49.174Z,1.94
2024-01-18T07:38:15.732Z,1.91
2024-01-18T07:40:42.394Z,1.94
2024-01-18T07:43:08.983Z,1.99
2024-01-18T07:45:35.575Z,2.05
2024-01-18T07:48:02.282Z,2.02
2024-01-18T07:50:35.124Z,1.94
2024-01-18T07:53:04.006Z,1.96
2024-01-18T07:55:31.000Z,1.94
2024-01-18T07:57:57.924Z,1.99
2024-01-18T08:00:25.311Z,2.01
2024-01-18T08:02:52.146Z,1.97
2024-01-18T08:05:18.658Z,1.98
2024-01-18T08:07:45.293Z,1.97
2024-01-18T08:10:11.856Z,1.95
2024-01-18T08:12:38.817Z,1.97
2024-01-18T08:15:06.578Z,1.95
2024-01-18T08:17:33.769Z,1.99
2024-01-18T08:20:00.566Z,2.13
2024-01-18T08:22:27.177Z,2.21
2024-01-18T08:24:53.733Z,2.18
2024-01-18T08:27:20.422Z,2.22
2024-01-18T08:29:48.514Z,2.21
2024-01-18T08:32:15.141Z,2.20
2024-01-18T08:34:44.759Z,2.23
2024-01-18T08:37:12.639Z,2.31
2024-01-18T08:39:39.982Z,2.30
2024-01-18T08:42:06.984Z,2.31
2024-01-18T08:44:33.579Z,2.31
2024-01-18T08:47:00.521Z,2.37
2024-01-18T08:49:27.289Z,2.45
2024-01-18T08:51:54.295Z,2.45
2024-01-18T08:54:24.179Z,2.47
2024-01-18T08:56:50.706Z,2.43
2024-01-18T08:59:17.264Z,2.50
2024-01-18T09:01:44.080Z,2.50
2024-01-18T09:04:10.977Z,2.48
2024-01-18T09:06:39.051Z,2.47
2024-01-18T09:09:10.781Z,2.49
2024-01-18T09:11:38.391Z,2.52
2024-01-18T09:14:05.377Z,2.60
2024-01-18T09:16:32.505Z,2.59
2024-01-18T09:19:10.495Z,2.58
2024-01-18T09:21:46.237Z,2.58
2024-01-18T09:24:13.871Z,2.51
2024-01-18T09:26:41.148Z,2.63
2024-01-18T09:29:07.865Z,2.72
2024-01-18T09:31:41.298Z,2.79
2024-01-18T09:34:12.051Z,2.82
2024-01-18T09:36:38.767Z,2.85
2024-01-18T09:39:26.014Z,2.84
2024-01-18T09:42:00.063Z,2.85
2024-01-18T09:44:28.302Z,2.86
2024-01-18T09:46:55.327Z,2.87
2024-01-18T09:49:22.098Z,2.91
2024-01-18T09:51:48.983Z,3.02
2024-01-18T09:54:16.258Z,3.12
2024-01-18T09:56:46.248Z,3.21
2024-01-18T09:59:19.153Z,3.28
2024-01-18T10:01:46.566Z,3.38
2024-01-18T10:04:14.784Z,3.44
2024-01-18T10:06:42.471Z,3.49
2024-01-18T10:09:15.818Z,3.54
2024-01-18T10:11:45.332Z,3.59
2024-01-18T10:14:11.899Z,3.61
2024-01-18T10:16:40.491Z,3.57
2024-01-18T10:19:08.703Z,3.62
2024-01-18T10:21:36.310Z,3.65
2024-01-18T10:24:07.331Z,3.68
2024-01-18T10:26:34.380Z,3.63
2024-01-18T10:29:03.298Z,3.78
2024-01-18T10:31:32.634Z,3.88
2024-01-18T10:33:59.417Z,3.92
2024-01-18T10:36:27.120Z,3.97
2024-01-18T10:38:53.724Z,3.99
2024-01-18T10:41:20.658Z,4.04
2024-01-18T10:43:49.079Z,4.09
2024-01-18T10:46:16.214Z,4.13
2024-01-18T10:48:48.119Z,4.11
2024-01-18T10:51:15.250Z,4.18
2024-01-18T10:53:43.076Z,4.23
2024-01-18T10:56:09.931Z,4.37
2024-01-18T10:58:36.797Z,4.49
2024-01-18T11:01:05.201Z,4.48
2024-01-18T11:03:32.771Z,4.55
2024-01-18T11:06:01.884Z,4.57
2024-01-18T11:08:29.933Z,4.43
2024-01-18T11:10:56.528Z,4.35
2024-01-18T11:13:23.615Z,4.33
2024-01-18T11:15:54.426Z,4.36
2024-01-18T11:18:23.041Z,4.39
2024-01-18T11:20:58.721Z,4.37
2024-01-18T11:23:38.866Z,4.40
2024-01-18T11:26:18.809Z,4.31
2024-01-18T11:28:45.690Z,4.22
2024-01-18T11:31:12.451Z,4.21
2024-01-18T11:33:39.276Z,4.17
2024-01-18T11:36:09.687Z,4.19
2024-01-18T11:38:44.975Z,4.30
2024-01-18T11:41:21.123Z,4.33
2024-01-18T11:43:57.503Z,4.40
2024-01-18T11:46:37.107Z,4.49
2024-01-18T11:49:03.799Z,4.58
2024-01-18T11:51:30.890Z,4.65
2024-01-18T11:54:00.135Z,4.74
2024-01-18T11:56:28.060Z,4.80
2024-01-18T11:59:02.274Z,4.82
2024-01-18T12:01:30.932Z,4.89
2024-01-18T12:03:58.039Z,4.90
2024-01-18T12:06:28.193Z,4.91
2024-01-18T12:08:55.457Z,4.91
2024-01-18T12:11:22.033Z,4.98
2024-01-18T12:13:48.632Z,5.03
2024-01-18T12:16:15.141Z,4.96
2024-01-18T12:18:43.834Z,4.87
2024-01-18T12:21:11.227Z,4.84
2024-01-18T12:23:38.252Z,4.80
2024-01-18T12:26:05.384Z,4.68
2024-01-18T12:28:32.052Z,4.64
2024-01-18T12:31:04.905Z,4.67
2024-01-18T12:33:32.644Z,4.66
2024-01-18T12:36:02.281Z,4.66
2024-01-18T12:38:29.662Z,4.65
2024-01-18T12:40:56.288Z,4.66
2024-01-18T12:43:22.910Z,4.72
2024-01-18T12:45:52.975Z,4.73
2024-01-18T12:48:20.592Z,4.72
2024-01-18T12:50:47.759Z,4.83
2024-01-18T12:53:14.945Z,4.93
2024-01-18T12:55:41.909Z,4.96
2024-01-18T12:58:13.687Z,4.93
2024-01-18T13:00:40.535Z,4.96
2024-01-18T13:03:19.050Z,4.92
2024-01-18T13:05:46.687Z,4.89
2024-01-18T13:08:14.525Z,4.83
2024-01-18T13:10:41.150Z,4.78
2024-01-18T13:13:11.064Z,4.76
2024-01-18T13:15:40.597Z,4.74
2024-01-18T13:18:10.379Z,4.71
2024-01-18T13:20:43.875Z,4.78
2024-01-18T13:23:12.134Z,4.76
2024-01-18T13:25:38.740Z,4.78
2024-01-18T13:28:05.874Z,4.75
2024-01-18T13:30:33.199Z,4.77
2024-01-18T13:33:04.304Z,4.72
2024-01-18T13:35:33.801Z,4.66
2024-01-18T13:38:00.870Z,4.56
2024-01-18T13:40:27.397Z,4.47
2024-01-18T13:42:53.936Z,4.33
2024-01-18T13:45:20.500Z,4.25
2024-01-18T13:47:47.149Z,4.19
2024-01-18T13:50:13.697Z,4.13
2024-01-18T13:52:40.341Z,4.11
2024-01-18T13:55:07.194Z,4.07
2024-01-18T13:57:33.771Z,4.02
2024-01-18T14:00:00.361Z,3.96
2024-01-18T14:02:27.936Z,3.93
2024-01-18T14:04:54.599Z,3.89
2024-01-18T14:07:21.303Z,3.87
2024-01-18T14:09:47.902Z,3.88
2024-01-18T14:12:14.505Z,3.94
2024-01-18T14:14:41.084Z,3.95
2024-01-18T14:17:08.173Z,3.90
2024-01-18T14:19:35.781Z,3.92
2024-01-18T14:22:03.153Z,3.89
2024-01-18T14:24:31.726Z,3.86
2024-01-18T14:26:58.443Z,3.94
2024-01-18T14:29:24.957Z,3.95
2024-01-18T14:31:51.801Z,3.95
2024-01-18T14:34:18.488Z,3.91
2024-01-18T14:36:45.144Z,3.93
2024-01-18T14:39:12.426Z,3.93
2024-01-18T14:41:38.992Z,3.92
2024-01-18T14:44:05.849Z,3.91
2024-01-18T14:46:33.245Z,3.87
2024-01-18T14:49:00.600Z,3.83
2024-01-18T14:51:27.305Z,3.77
2024-01-18T14:53:53.840Z,3.72
2024-01-18T14:56:20.363Z,3.66
2024-01-18T14:58:47.586Z,3.55
2024-01-18T15:01:14.286Z,3.48
2024-01-18T15:03:44.561Z,3.43
2024-01-18T15:06:15.800Z,3.32
2024-01-18T15:08:42.789Z,3.29
2024-01-18T15:11:09.578Z,3.25
2024-01-18T15:13:36.104Z,3.20
2024-01-18T15:16:06.304Z,3.16
2024-01-18T15:18:35.030Z,3.12
2024-01-18T15:21:04.737Z,3.11
2024-01-18T15:23:31.399Z,3.07
2024-01-18T15:25:57.895Z,3.02
2024-01-18T15:28:25.469Z,3.01
2024-01-18T15:30:52.165Z,3.01
2024-01-18T15:33:18.846Z,3.01
2024-01-18T15:35:45.516Z,3.02
2024-01-18T15:38:12.123Z,3.03
2024-01-18T15:40:38.649Z,2.99
2024-01-18T15:43:05.282Z,2.95
2024-01-18T15:45:33.403Z,2.95
2024-01-18T15:48:00.053Z,2.95
2024-01-18T15:50:26.996Z,2.90
2024-01-18T15:52:53.587Z,2.86
2024-01-18T15:55:20.163Z,2.85
2024-01-18T15:57:46.754Z,2.78
2024-01-18T16:00:13.894Z,2.69
2024-01-18T16:02:40.469Z,2.64
2024-01-18T16:05:08.240Z,2.59
2024-01-18T16:07:35.298Z,2.55
2024-01-18T16:10:04.454Z,2.51
2024-01-18T16:12:34.083Z,2.48
2024-01-18T16:15:00.765Z,2.47
2024-01-18T16:17:27.338Z,2.44
2024-01-18T16:19:54.028Z,2.39
2024-01-18T16:22:20.676Z,2.32
2024-01-18T16:24:47.160Z,2.24
2024-01-18T16:27:13.774Z,2.20
2024-01-18T16:29:50.905Z,2.18
2024-01-18T16:32:25.939Z,2.12
2024-01-18T16:34:53.167Z,2.11
2024-01-18T16:37:19.797Z,2.08
2024-01-18T16:39:49.960Z,2.07
2024-01-18T16:42:16.923Z,2.07
2024-01-18T16:44:43.582Z,2.07
2024-01-18T16:47:10.107Z,2.01
2024-01-18T16:49:36.827Z,1.96
2024-01-18T16:52:03.627Z,1.86
2024-01-18T16:54:30.157Z,1.86
2024-01-18T16:56:56.706Z,1.80
2024-01-18T16:59:23.189Z,1.76
2024-01-18T17:01:49.759Z,1.74
2024-01-18T17:04:16.396Z,1.76
2024-01-18T17:06:45.047Z,1.78
2024-01-18T17:09:11.744Z,1.76
2024-01-18T17:11:38.539Z,1.71
2024-01-18T17:14:06.267Z,1.69
2024-01-18T17:16:32.964Z,1.67
2024-01-18T17:18:59.567Z,1.65
2024-01-18T17:21:26.104Z,1.63
2024-01-18T17:23:52.649Z,1.57
2024-01-18T17:26:19.228Z,1.55
2024-01-18T17:28:45.770Z,1.53
2024-01-18T17:31:15.127Z,1.51
2024-01-18T17:33:41.846Z,1.47
2024-01-18T17:36:08.760Z,1.44
2024-01-18T17:38:35.940Z,1.44
2024-01-18T17:41:02.616Z,1.41
2024-01-18T17:43:29.102Z,1.37
2024-01-18T17:45:55.842Z,1.38
2024-01-18T17:48:22.498Z,1.38
2024-01-18T17:50:49.481Z,1.37
2024-01-18T17:53:16.527Z,1.33
2024-01-18T17:55:46.634Z,1.31
2024-01-18T17:58:13.826Z,1.30
2024-01-18T18:00:42.250Z,1.28
2024-01-18T18:03:08.935Z,1.27
2024-01-18T18:05:35.964Z,1.28
2024-01-18T18:08:02.607Z,1.30
2024-01-18T18:10:29.976Z,1.29
2024-01-18T18:12:56.697Z,1.30
2024-01-18T18:15:23.259Z,1.27
2024-01-18T18:17:49.895Z,1.26
2024-01-18T18:20:16.615Z,1.27
2024-01-18T18:22:43.191Z,1.27
2024-01-18T18:25:09.687Z,1.25
2024-01-18T18:27:37.426Z,1.26
2024-01-18T18:30:05.664Z,1.25
2024-01-18T18:32:32.374Z,1.26
2024-01-18T18:34:59.134Z,1.24
2024-01-18T18:37:29.248Z,1.20
2024-01-18T18:40:04.263Z,1.19
2024-01-18T18:42:30.919Z,1.14
2024-01-18T18:44:57.499Z,1.14
2024-01-18T18:47:24.139Z,1.16
2024-01-18T18:49:50.783Z,1.16
2024-01-18T18:52:17.599Z,1.15
2024-01-18T18:54:44.175Z,1.13
2024-01-18T18:57:10.951Z,1.12
2024-01-18T18:59:43.825Z,1.12
2024-01-18T19:02:16.084Z,1.13
2024-01-18T19:04:42.841Z,1.09
2024-01-18T19:07:09.489Z,1.11
2024-01-18T19:09:36.041Z,1.11
2024-01-18T19:12:02.596Z,1.06
2024-01-18T19:14:29.537Z,1.01
2024-01-18T19:16:56.097Z,0.96
2024-01-18T19:19:23.072Z,0.91
2024-01-18T19:21:49.676Z,0.85
2024-01-18T19:24:17.386Z,0.74
2024-01-18T19:26:44.330Z,0.68
2024-01-18T19:29:10.917Z,0.63
2024-01-18T19:31:37.480Z,0.59
2024-01-18T19:34:04.764Z,0.59
2024-01-18T19:36:31.249Z,0.61
2024-01-18T19:38:57.771Z,0.58
2024-01-18T19:41:26.659Z,0.57
2024-01-18T19:43:53.181Z,0.55
2024-01-18T19:46:19.671Z,0.53
2024-01-18T19:48:46.411Z,0.43
2024-01-18T19:51:13.189Z,0.34
2024-01-18T19:53:39.783Z,0.28
2024-01-18T19:56:06.646Z,0.30
2024-01-18T19:58:33.227Z,0.36
2024-01-18T20:01:00.857Z,0.41
2024-01-18T20:03:27.448Z,0.43
2024-01-18T20:05:54.000Z,0.42
2024-01-18T20:08:21.310Z,0.45
2024-01-18T20:10:47.873Z,0.42
2024-01-18T20:13:14.364Z,0.41
2024-01-18T20:15:43.112Z,0.42
2024-01-18T20:18:12.026Z,0.45
2024-01-18T20:20:39.613Z,0.45
2024-01-18T20:23:07.616Z,0.44
2024-01-18T20:25:34.741Z,0.46
2024-01-18T20:28:02.180Z,0.47
2024-01-18T20:30:29.984Z,0.46
2024-01-18T20:32:56.818Z,0.46
2024-01-18T20:35:23.500Z,0.45
2024-01-18T20:37:50.275Z,0.45
2024-01-18T20:40:17.501Z,0.38
2024-01-18T20:42:45.020Z,0.36
2024-01-18T20:45:11.554Z,0.33
2024-01-18T20:47:38.204Z,0.29
2024-01-18T20:50:05.665Z,0.30
2024-01-18T20:52:32.212Z,0.30
2024-01-18T20:54:58.866Z,0.30
2024-01-18T20:57:25.486Z,0.33
2024-01-18T20:59:52.240Z,0.33
2024-01-18T21:02:18.819Z,0.34
2024-01-18T21:04:45.418Z,0.35
2024-01-18T21:07:12.146Z,0.36
2024-01-18T21:09:38.713Z,0.36
2024-01-18T21:12:05.809Z,0.34
2024-01-18T21:14:32.602Z,0.33
2024-01-18T21:17:00.261Z,0.27
2024-01-18T21:19:27.310Z,0.22
2024-01-18T21:21:54.083Z,0.14
2024-01-18T21:24:20.652Z,0.12
2024-01-18T21:26:47.321Z,0.16
2024-01-18T21:29:13.937Z,0.23
2024-01-18T21:31:40.506Z,0.33
2024-01-18T21:34:07.515Z,0.41
2024-01-18T21:36:37.390Z,0.47
2024-01-18T21:39:04.834Z,0.49
2024-01-18T21:41:31.658Z,0.50
2024-01-18T21:43:58.266Z,0.52
2024-01-18T21:46:24.957Z,0.55
2024-01-18T21:48:51.886Z,0.59
2024-01-18T21:51:19.862Z,0.65
2024-01-18T21:53:47.094Z,0.72
2024-01-18T21:56:13.768Z,0.81
2024-01-18T21:58:42.418Z,0.85
2024-01-18T22:01:09.373Z,0.93
2024-01-18T22:03:37.574Z,1.02
2024-01-18T22:06:04.500Z,1.02
2024-01-18T22:08:31.164Z,1.07
2024-01-18T22:10:57.805Z,1.06
2024-01-18T22:13:24.278Z,1.07
2024-01-18T22:15:53.101Z,1.09
2024-01-18T22:18:19.660Z,1.13
2024-01-18T22:20:46.330Z,1.15
2024-01-18T22:23:12.946Z,1.20
2024-01-18T22:25:39.450Z,1.23
2024-01-18T22:28:06.589Z,1.31
2024-01-18T22:30:33.119Z,1.37
2024-01-18T22:32:59.696Z,1.40
2024-01-18T22:35:26.663Z,1.41
2024-01-18T22:37:53.478Z,1.41
2024-01-18T22:40:20.716Z,1.45
2024-01-18T22:42:47.266Z,1.47
2024-01-18T22:45:15.123Z,1.46
2024-01-18T22:47:41.771Z,1.46
2024-01-18T22:50:09.810Z,1.45
2024-01-18T22:52:36.660Z,1.50
2024-01-18T22:55:03.620Z,1.58
2024-01-18T22:57:30.133Z,1.63
2024-01-18T22:59:56.737Z,1.64
2024-01-18T23:02:23.284Z,1.67
2024-01-18T23:04:49.798Z,1.71
2024-01-18T23:07:26.236Z,1.69
2024-01-18T23:09:52.735Z,1.75
2024-01-18T23:12:19.214Z,1.80
2024-01-18T23:14:45.831Z,1.83
2024-01-18T23:17:12.351Z,1.83
2024-01-18T23:19:38.858Z,1.83
2024-01-18T23:22:05.384Z,1.80
2024-01-18T23:24:31.879Z,1.78
2024-01-18T23:26:58.376Z,1.71
2024-01-18T23:29:24.981Z,1.65
2024-01-18T23:31:51.597Z,1.66
2024-01-18T23:34:18.140Z,1.67
2024-01-18T23:36:44.946Z,1.71
2024-01-18T23:39:14.098Z,1.73
2024-01-18T23:41:41.155Z,1.74
2024-01-18T23:44:09.846Z,1.75
2024-01-18T23:46:38.183Z,1.78
2024-01-18T23:49:06.141Z,1.84
2024-01-18T23:51:33.312Z,1.82
2024-01-18T23:53:59.823Z,1.82
2024-01-18T23:56:26.407Z,1.87
2024-01-18T23:58:52.940Z,1.90
